Time;durP1;ratioP1;P1;durP2;ratioP2;P2;SDS_P1;SDS_P2;PMS_P1;PMS_P2;Temp;Humidity;BMP_temperature;BMP_pressure;BME280_temperature;BME280_humidity;BME280_pressure;Samples;Min_cycle;Max_cycle;Signal;HPM_P1;HPM_P2
2023/01/03 00:01:36;;;;;;;3.70;2.17;;;;;;;9.45;100.00;97726.47;4991197;28;20535;-61
2023/01/03 00:04:02;;;;;;;2.50;2.30;;;;;;;9.38;100.00;97718.16;4991267;28;20212;-63
2023/01/03 00:06:31;;;;;;;3.03;2.20;;;;;;;9.33;100.00;97728.19;4990901;28;20205;-63
2023/01/03 00:08:59;;;;;;;2.83;2.60;;;;;;;9.38;100.00;97728.72;4991244;28;20209;-63
2023/01/03 00:14:12;;;;;;;1.57;1.47;;;;;;;9.33;100.00;97727.34;4994099;28;20695;-63
2023/01/03 00:16:39;;;;;;;2.80;1.70;;;;;;;9.32;100.00;97730.91;4996048;28;20533;-62
2023/01/03 00:19:06;;;;;;;1.13;1.13;;;;;;;9.22;100.00;97725.44;4995769;28;20224;-62
2023/01/03 00:21:33;;;;;;;1.17;1.17;;;;;;;9.20;100.00;97727.38;4994383;28;20652;-62
2023/01/03 00:24:01;;;;;;;1.43;1.33;;;;;;;9.16;100.00;97725.91;4993853;28;20668;-61
2023/01/03 00:26:28;;;;;;;1.40;1.30;;;;;;;9.18;100.00;97728.41;4994894;28;20288;-63
2023/01/03 00:28:54;;;;;;;1.17;1.17;;;;;;;9.08;100.00;97727.38;4994673;28;20527;-62
2023/01/03 00:31:22;;;;;;;0.97;0.80;;;;;;;9.06;100.00;97740.69;4994468;28;20197;-61
2023/01/03 00:33:51;;;;;;;1.20;1.10;;;;;;;9.03;100.00;97730.34;4994494;28;20628;-64
2023/01/03 00:36:17;;;;;;;0.90;0.90;;;;;;;9.04;100.00;97723.25;4994764;28;20209;-62
2023/01/03 00:38:44;;;;;;;1.63;1.33;;;;;;;9.00;100.00;97726.13;4994067;28;20217;-66
2023/01/03 00:41:12;;;;;;;2.37;1.00;;;;;;;8.97;100.00;97726.34;4992374;28;20201;-63
2023/01/03 00:43:39;;;;;;;1.13;1.10;;;;;;;8.94;100.00;97723.91;4994662;28;20236;-63
2023/01/03 00:46:07;;;;;;;2.60;1.30;;;;;;;8.94;100.00;97721.28;5003231;28;20273;-62
2023/01/03 00:48:34;;;;;;;1.10;1.10;;;;;;;8.95;100.00;97716.84;5003160;28;20204;-63
2023/01/03 00:51:05;;;;;;;1.80;1.70;;;;;;;8.98;100.00;97722.75;5002710;28;20673;-63
2023/01/03 00:53:32;;;;;;;1.97;1.87;;;;;;;8.99;100.00;97721.81;5002943;28;20672;-63
2023/01/03 00:56:02;;;;;;;2.00;1.20;;;;;;;9.00;100.00;97720.84;5002761;28;20231;-63
2023/01/03 00:58:30;;;;;;;3.13;1.30;;;;;;;8.98;100.00;97717.47;5003637;28;20549;-63
2023/01/03 01:00:56;;;;;;;1.50;1.10;;;;;;;8.96;100.00;97722.00;5006539;28;20197;-65
2023/01/03 01:03:23;;;;;;;1.50;1.13;;;;;;;8.92;100.00;97715.28;5013627;28;20212;-65
2023/01/03 01:05:51;;;;;;;1.30;1.20;;;;;;;8.90;100.00;97719.78;5010130;28;20213;-65
2023/01/03 01:08:17;;;;;;;1.47;1.37;;;;;;;8.93;100.00;97724.00;5010115;28;20647;-64
2023/01/03 01:11:00;;;;;;;1.33;0.83;;;;;;;8.89;100.00;97726.00;5008190;28;20220;-65
2023/01/03 01:13:27;;;;;;;1.43;1.13;;;;;;;8.86;100.00;97718.31;5004357;28;20667;-64
2023/01/03 01:15:54;;;;;;;1.17;1.07;;;;;;;8.88;100.00;97715.59;5003304;28;20239;-64
2023/01/03 01:18:21;;;;;;;2.47;1.40;;;;;;;8.88;100.00;97716.44;5011123;28;20189;-67
2023/01/03 01:20:47;;;;;;;1.80;1.30;;;;;;;8.93;100.00;97724.84;5026160;28;20196;-70
2023/01/03 01:23:15;;;;;;;1.83;1.33;;;;;;;8.89;100.00;97715.47;5028424;28;20197;-65
2023/01/03 01:25:42;;;;;;;1.43;1.33;;;;;;;8.92;100.00;97711.78;5016502;28;20296;-63
2023/01/03 01:28:09;;;;;;;2.83;1.50;;;;;;;8.92;100.00;97704.72;5007105;28;20281;-62
2023/01/03 01:30:36;;;;;;;1.23;1.03;;;;;;;8.90;100.00;97711.88;5004767;28;20212;-64
2023/01/03 01:33:04;;;;;;;1.30;1.20;;;;;;;8.89;100.00;97710.19;5003364;28;20207;-62
2023/01/03 01:35:31;;;;;;;1.10;1.10;;;;;;;8.84;100.00;97709.69;5002572;28;20659;-63
2023/01/03 01:37:59;;;;;;;1.83;1.20;;;;;;;8.80;100.00;97707.34;5002397;28;20633;-65
2023/01/03 01:40:27;;;;;;;1.07;1.07;;;;;;;8.75;100.00;97710.28;5002276;28;20201;-65
2023/01/03 01:45:38;;;;;;;1.20;1.10;;;;;;;8.81;100.00;97715.16;4973050;28;20348;-64
2023/01/03 01:48:07;;;;;;;1.37;1.10;;;;;;;8.83;100.00;97718.53;4972596;28;20246;-64
2023/01/03 01:50:36;;;;;;;1.13;1.10;;;;;;;8.86;100.00;97726.22;4972360;28;20228;-63
2023/01/03 01:53:11;;;;;;;1.40;1.00;;;;;;;8.82;100.00;97727.38;4971753;28;20205;-64
2023/01/03 01:55:40;;;;;;;1.20;1.20;;;;;;;8.80;100.00;97729.28;4971438;28;20229;-63
2023/01/03 01:58:08;;;;;;;1.43;1.30;;;;;;;8.77;100.00;97734.78;4961137;28;20209;-64
2023/01/03 02:00:35;;;;;;;1.43;1.33;;;;;;;8.76;100.00;97733.09;4972800;28;20201;-64
2023/01/03 02:03:02;;;;;;;1.33;1.23;;;;;;;8.76;100.00;97733.09;4973198;28;20201;-62
2023/01/03 02:05:29;;;;;;;1.30;1.20;;;;;;;8.75;100.00;97726.13;4973296;28;20202;-63
2023/01/03 02:07:58;;;;;;;2.50;1.20;;;;;;;8.77;100.00;97724.25;4973215;28;20210;-65
2023/01/03 02:10:35;;;;;;;2.77;1.20;;;;;;;8.77;100.00;97732.16;4973290;28;20202;-63
2023/01/03 02:13:09;;;;;;;0.90;0.90;;;;;;;8.73;100.00;97724.53;4973550;28;20252;-62
2023/01/03 02:15:47;;;;;;;1.37;1.27;;;;;;;8.76;100.00;97727.81;4973083;28;20210;-65
2023/01/03 02:18:33;;;;;;;1.20;1.10;;;;;;;8.79;100.00;97729.38;4973459;28;20300;-64
2023/01/03 02:21:33;;;;;;;0.87;0.87;;;;;;;8.77;100.00;97724.25;4972594;28;20206;-65
2023/01/03 02:24:33;;;;;;;0.90;0.77;;;;;;;8.74;100.00;97719.19;4969978;28;20213;-62
2023/01/03 02:27:03;;;;;;;1.87;0.90;;;;;;;8.72;100.00;97718.41;4942277;28;20264;-63
2023/01/03 02:29:56;;;;;;;1.30;1.20;;;;;;;8.71;100.00;97713.28;4972698;28;20220;-62
2023/01/03 02:32:32;;;;;;;0.80;0.80;;;;;;;8.71;100.00;97719.41;4972426;28;20202;-63
2023/01/03 02:35:03;;;;;;;0.77;0.70;;;;;;;8.72;100.00;97715.78;4972108;28;20209;-64
2023/01/03 02:37:37;;;;;;;1.80;0.90;;;;;;;8.73;100.00;97716.63;4973252;28;20301;-62
2023/01/03 02:40:09;;;;;;;1.27;0.70;;;;;;;8.73;100.00;97714.84;4972699;28;20197;-64
2023/01/03 02:43:00;;;;;;;1.17;0.73;;;;;;;8.74;100.00;97700.72;4972795;28;20201;-63
2023/01/03 02:45:49;;;;;;;0.83;0.77;;;;;;;8.72;100.00;97705.22;4972425;28;20603;-62
2023/01/03 02:48:19;;;;;;;0.70;0.63;;;;;;;8.72;100.00;97697.31;4967446;28;20232;-63
2023/01/03 02:50:48;;;;;;;1.00;1.00;;;;;;;8.70;100.00;97701.88;4972712;28;20295;-61
2023/01/03 02:53:17;;;;;;;1.63;0.90;;;;;;;8.64;100.00;97702.31;4972387;28;20198;-64
2023/01/03 02:55:44;;;;;;;1.43;1.00;;;;;;;8.63;100.00;97705.88;4971110;28;20228;-64
2023/01/03 02:58:18;;;;;;;0.80;0.80;;;;;;;8.63;100.00;97710.31;4972108;28;20217;-64
2023/01/03 03:00:50;;;;;;;0.90;0.90;;;;;;;8.64;100.00;97707.56;4972159;28;20284;-62
2023/01/03 03:03:21;;;;;;;1.23;1.17;;;;;;;8.65;100.00;97714.50;4971595;28;20205;-63
2023/01/03 03:05:52;;;;;;;1.40;0.90;;;;;;;8.68;100.00;97724.84;4971717;28;20607;-64
2023/01/03 03:08:19;;;;;;;0.87;0.87;;;;;;;8.68;100.00;97722.22;4972043;28;20554;-66
2023/01/03 03:13:34;;;;;;;1.37;0.93;;;;;;;8.65;100.00;97719.78;4971883;28;20216;-63
2023/01/03 03:16:05;;;;;;;1.10;1.00;;;;;;;8.59;100.00;97720.22;4972484;28;20205;-62
2023/01/03 03:18:42;;;;;;;0.80;0.80;;;;;;;8.59;100.00;97725.50;4972342;28;20209;-64
2023/01/03 03:26:41;;;;;;;1.70;1.23;;;;;;;8.61;100.00;97723.59;4971915;28;20657;-64
2023/01/03 03:29:10;;;;;;;1.07;0.90;;;;;;;8.57;100.00;97718.66;4974083;28;20209;-64
2023/01/03 03:31:39;;;;;;;0.90;0.90;;;;;;;8.56;100.00;97720.44;4963731;28;20602;-64
2023/01/03 03:34:11;;;;;;;0.93;0.93;;;;;;;8.56;100.00;97712.53;4973753;28;20244;-64
2023/01/03 03:36:41;;;;;;;1.67;0.93;;;;;;;8.57;100.00;97706.31;4973619;28;20206;-64
2023/01/03 03:44:59;;;;;;;0.83;0.77;;;;;;;8.54;100.00;97706.50;4973375;28;20876;-64
2023/01/03 03:45:00;;;;;;;2.77;1.10;;;;;;;8.56;100.00;97709.88;5014289;28;20227;-69
2023/01/03 03:47:32;;;;;;;0.80;0.80;;;;;;;8.60;100.00;97714.00;5025543;28;20180;-69
2023/01/03 03:50:03;;;;;;;0.50;0.50;;;;;;;8.62;100.00;97709.47;5027893;28;20172;-64
2023/01/03 03:52:32;;;;;;;0.93;0.60;;;;;;;8.57;100.00;97710.72;5007210;28;20303;-63
2023/01/03 03:55:01;;;;;;;1.80;1.00;;;;;;;8.54;100.00;97711.75;5005442;28;20229;-63
2023/01/03 03:57:31;;;;;;;0.63;0.63;;;;;;;8.56;100.00;97711.66;5005428;28;20220;-64
2023/01/03 04:00:01;;;;;;;0.87;0.87;;;;;;;8.48;100.00;97707.75;5006072;28;20207;-64
2023/01/03 04:02:30;;;;;;;0.80;0.80;;;;;;;8.46;100.00;97707.03;5005647;28;20716;-64
2023/01/03 04:05:00;;;;;;;0.80;0.80;;;;;;;8.45;100.00;97709.75;5006086;28;20208;-63
2023/01/03 04:07:27;;;;;;;0.50;0.50;;;;;;;8.39;100.00;97708.41;5005605;28;20882;-65
2023/01/03 04:09:53;;;;;;;0.67;0.50;;;;;;;8.36;100.00;97707.75;5005665;28;20219;-64
2023/01/03 04:12:24;;;;;;;0.30;0.30;;;;;;;8.39;100.00;97699.66;5004915;28;20208;-63
2023/01/03 04:14:51;;;;;;;0.47;0.47;;;;;;;8.35;100.00;97706.06;5005603;28;20594;-63
2023/01/03 04:17:20;;;;;;;0.47;0.43;;;;;;;8.35;100.00;97711.34;5005551;28;20211;-64
2023/01/03 04:19:48;;;;;;;0.50;0.50;;;;;;;8.35;100.00;97706.91;5004841;28;20210;-65
2023/01/03 04:22:16;;;;;;;0.30;0.30;;;;;;;8.35;100.00;97690.25;5005456;28;20538;-64
2023/01/03 04:24:42;;;;;;;0.80;0.50;;;;;;;8.30;100.00;97697.63;5003837;28;20205;-64
2023/01/03 04:27:10;;;;;;;0.63;0.50;;;;;;;8.25;100.00;97691.78;5005309;28;20224;-64
2023/01/03 04:29:36;;;;;;;1.10;0.77;;;;;;;8.30;100.00;97697.63;5004376;28;20625;-63
2023/01/03 04:32:04;;;;;;;1.07;0.70;;;;;;;8.30;100.00;97698.47;5005562;28;20540;-64
2023/01/03 04:34:30;;;;;;;1.07;0.60;;;;;;;8.31;100.00;97694.88;5005829;28;20239;-64
2023/01/03 04:36:57;;;;;;;1.23;0.60;;;;;;;8.30;100.00;97692.34;5007994;28;20201;-62
2023/01/03 04:39:24;;;;;;;0.60;0.60;;;;;;;8.28;100.00;97699.50;5006735;28;20212;-65
2023/01/03 04:41:51;;;;;;;2.07;0.60;;;;;;;8.30;100.00;97702.88;5007486;28;20205;-65
2023/01/03 04:44:17;;;;;;;1.30;0.70;;;;;;;8.29;100.00;97711.75;5002144;28;20363;-63
2023/01/03 04:46:43;;;;;;;0.60;0.60;;;;;;;8.32;100.00;97706.28;5000852;28;20224;-63
2023/01/03 04:49:10;;;;;;;0.73;0.50;;;;;;;8.22;100.00;97707.81;5001351;28;20224;-65
2023/01/03 04:51:36;;;;;;;0.60;0.60;;;;;;;8.22;100.00;97705.19;4996158;28;20219;-63
2023/01/03 04:54:04;;;;;;;0.50;0.50;;;;;;;8.22;100.00;97708.63;4993995;28;20198;-63
2023/01/03 04:56:33;;;;;;;0.50;0.50;;;;;;;8.23;100.00;97709.47;4994659;28;20209;-64
2023/01/03 04:59:03;;;;;;;1.00;0.57;;;;;;;8.24;100.00;97719.09;4994349;28;20216;-65
2023/01/03 05:01:29;;;;;;;0.87;0.50;;;;;;;8.25;100.00;97715.50;4994743;28;20211;-65
2023/01/03 05:03:57;;;;;;;0.60;0.60;;;;;;;8.27;100.00;97718.88;4994188;28;20757;-63
2023/01/03 05:06:24;;;;;;;0.67;0.67;;;;;;;8.25;100.00;97726.06;4994259;28;20209;-61
2023/01/03 05:08:51;;;;;;;1.10;1.10;;;;;;;8.23;100.00;97728.78;4993934;28;20323;-63
2023/01/03 05:11:17;;;;;;;1.30;0.60;;;;;;;8.23;100.00;97727.94;4994095;28;20201;-64
2023/01/03 05:13:45;;;;;;;0.87;0.60;;;;;;;8.19;100.00;97735.19;4993854;28;20224;-62
2023/01/03 05:16:13;;;;;;;0.60;0.60;;;;;;;8.21;100.00;97735.94;5007864;28;20225;-66
2023/01/03 05:18:41;;;;;;;0.97;0.70;;;;;;;8.19;100.00;97739.63;5017557;28;20209;-66
2023/01/03 05:26:38;;;;;;;0.70;0.70;;;;;;;8.12;100.00;97727.78;4993952;28;20283;-64
2023/01/03 05:29:09;;;;;;;2.20;0.80;;;;;;;8.13;100.00;97740.03;4993215;28;20209;-66
2023/01/03 05:31:35;;;;;;;0.63;0.63;;;;;;;8.14;100.00;97733.81;4993806;28;20287;-64
2023/01/03 05:34:02;;;;;;;0.97;0.90;;;;;;;8.10;100.00;97732.34;4993840;28;20209;-63
2023/01/03 05:36:28;;;;;;;1.37;0.60;;;;;;;8.13;100.00;97737.41;4993565;28;20225;-62
2023/01/03 05:38:55;;;;;;;0.53;0.53;;;;;;;8.14;100.00;97739.09;4993657;28;20227;-65
2023/01/03 05:44:02;;;;;;;1.23;0.83;;;;;;;8.15;100.00;97746.06;5021346;28;20229;-68
2023/01/03 05:46:30;;;;;;;0.77;0.77;;;;;;;8.13;100.00;97751.41;5027724;28;20184;-68
2023/01/03 05:48:57;;;;;;;2.57;0.50;;;;;;;8.12;100.00;97751.50;5028784;28;20182;-68
2023/01/03 05:51:23;;;;;;;1.43;0.70;;;;;;;8.11;100.00;97755.09;5023316;28;20226;-64
2023/01/03 05:53:50;;;;;;;0.70;0.40;;;;;;;8.13;100.00;97754.06;5003441;28;20213;-65
2023/01/03 05:56:16;;;;;;;1.73;0.70;;;;;;;8.15;100.00;97753.97;5002836;28;20225;-64
2023/01/03 05:58:43;;;;;;;0.73;0.60;;;;;;;8.14;100.00;97758.38;5002656;28;20283;-63
2023/01/03 06:01:11;;;;;;;0.60;0.60;;;;;;;8.13;100.00;97761.09;5003110;28;20456;-64
2023/01/03 06:03:39;;;;;;;0.77;0.77;;;;;;;8.11;100.00;97769.13;5002969;28;20204;-64
2023/01/03 06:06:08;;;;;;;1.40;0.50;;;;;;;8.14;100.00;97761.03;5003047;28;20545;-64
2023/01/03 06:08:35;;;;;;;1.70;0.73;;;;;;;8.13;100.00;97769.84;5002343;28;20251;-64
2023/01/03 06:11:05;;;;;;;1.43;0.63;;;;;;;8.14;100.00;97778.63;5022091;28;20196;-68
2023/01/03 06:13:33;;;;;;;0.57;0.47;;;;;;;8.13;100.00;97783.03;5023731;28;20198;-66
2023/01/03 06:18:48;;;;;;;1.97;0.70;;;;;;;8.13;100.00;97785.66;5004548;28;20211;-64
2023/01/03 06:21:16;;;;;;;0.90;0.90;;;;;;;8.11;100.00;97787.56;5003635;28;20200;-63
2023/01/03 06:23:44;;;;;;;1.87;1.10;;;;;;;8.10;100.00;97791.13;5003028;28;20217;-61
2023/01/03 06:26:10;;;;;;;3.73;1.63;;;;;;;8.11;100.00;97789.34;5002700;28;20236;-62
2023/01/03 06:28:37;;;;;;;1.50;1.17;;;;;;;8.09;100.00;97784.16;5002105;28;20215;-64
2023/01/03 06:31:04;;;;;;;1.03;1.03;;;;;;;8.07;100.00;97785.22;5003021;28;20562;-67
2023/01/03 06:33:32;;;;;;;2.07;1.10;;;;;;;8.11;100.00;97790.22;5003468;28;20224;-64
2023/01/03 06:36:07;;;;;;;3.17;1.30;;;;;;;8.13;100.00;97790.09;5001897;28;20220;-64
2023/01/03 06:38:34;;;;;;;1.77;1.00;;;;;;;8.10;100.00;97795.56;5003723;28;20189;-63
2023/01/03 06:41:00;;;;;;;1.83;1.13;;;;;;;8.08;100.00;97802.72;5004092;28;20801;-63
2023/01/03 06:43:27;;;;;;;1.47;1.27;;;;;;;8.09;100.00;97807.88;5002685;28;20256;-65
2023/01/03 06:54:14;;;;;;;2.97;1.00;;;;;;;8.09;100.00;97810.53;5004172;28;20368;-62
2023/01/03 06:56:41;;;;;;;0.93;0.70;;;;;;;8.07;100.00;97816.84;5005144;28;20726;-65
2023/01/03 06:59:09;;;;;;;1.10;0.80;;;;;;;8.08;100.00;97813.28;5003665;28;20610;-62
2023/01/03 07:01:36;;;;;;;1.27;0.87;;;;;;;8.09;100.00;97821.06;5003127;28;20212;-61
2023/01/03 07:04:03;;;;;;;1.07;0.73;;;;;;;8.12;100.00;97823.50;5003075;28;20198;-60
2023/01/03 07:06:30;;;;;;;2.20;0.90;;;;;;;8.16;100.00;97818.88;5001996;28;20509;-58
2023/01/03 07:08:57;;;;;;;1.10;0.90;;;;;;;8.22;100.00;97821.13;5001073;28;20215;-59
2023/01/03 07:11:23;;;;;;;1.67;1.07;;;;;;;8.21;100.00;97822.06;5002030;28;20216;-60
2023/01/03 07:13:58;;;;;;;1.10;1.10;;;;;;;8.23;100.00;97820.16;5002158;28;20205;-59
2023/01/03 07:16:26;;;;;;;0.70;0.70;;;;;;;8.25;100.00;97826.19;5001809;28;20213;-59
2023/01/03 07:18:52;;;;;;;1.27;0.97;;;;;;;8.25;100.00;97826.19;5001853;28;20217;-59
2023/01/03 07:21:20;;;;;;;0.90;0.90;;;;;;;8.24;100.00;97824.50;5001548;28;20207;-59
2023/01/03 07:23:47;;;;;;;1.47;0.80;;;;;;;8.21;100.00;97822.06;5001423;28;20201;-59
2023/01/03 07:26:14;;;;;;;1.13;1.13;;;;;;;8.24;100.00;97827.97;5001136;28;20201;-59
2023/01/03 07:28:40;;;;;;;2.17;1.10;;;;;;;8.21;100.00;97827.31;5002072;28;20209;-59
2023/01/03 07:31:07;;;;;;;2.97;1.10;;;;;;;8.21;100.00;97832.59;5001465;28;20229;-59
2023/01/03 07:33:34;;;;;;;2.27;1.90;;;;;;;8.23;100.00;97831.53;5001761;28;20208;-59
2023/01/03 07:36:01;;;;;;;1.97;1.70;;;;;;;8.24;100.00;97830.59;5001451;28;20509;-58
2023/01/03 07:38:28;;;;;;;1.50;1.40;;;;;;;8.26;100.00;97830.50;5001840;28;20255;-58
2023/01/03 07:40:57;;;;;;;1.57;1.47;;;;;;;8.29;100.00;97833.00;5000809;28;20538;-59
2023/01/03 07:43:38;;;;;;;3.00;1.40;;;;;;;8.29;100.00;97833.81;5001043;28;20236;-59
2023/01/03 07:46:06;;;;;;;3.33;1.50;;;;;;;8.28;100.00;97836.53;5001049;28;20200;-59
2023/01/03 07:48:33;;;;;;;1.63;1.50;;;;;;;8.31;100.00;97839.00;5001336;28;20315;-59
2023/01/03 07:51:00;;;;;;;1.30;1.20;;;;;;;8.30;100.00;97842.56;5001088;28;20204;-59
2023/01/03 07:53:27;;;;;;;2.90;1.57;;;;;;;8.27;100.00;97838.31;5001034;28;20232;-58
2023/01/03 07:55:53;;;;;;;2.07;1.70;;;;;;;8.26;100.00;97838.41;5000098;28;20232;-59
2023/01/03 07:58:21;;;;;;;1.60;1.50;;;;;;;8.25;100.00;97842.00;5001732;28;20224;-58
2023/01/03 08:00:47;;;;;;;2.37;1.83;;;;;;;8.28;100.00;97845.31;5001641;28;20197;-59
2023/01/03 08:03:14;;;;;;;2.23;2.13;;;;;;;8.29;100.00;97848.81;5001239;28;20217;-59
2023/01/03 08:05:40;;;;;;;2.37;2.17;;;;;;;8.29;100.00;97848.81;5001110;28;20203;-59
2023/01/03 08:08:07;;;;;;;2.70;1.87;;;;;;;8.29;100.00;97849.63;5001484;28;20538;-59
2023/01/03 08:13:18;;;;;;;1.90;1.80;;;;;;;8.32;100.00;97854.72;5001364;28;20229;-60
2023/01/03 08:15:46;;;;;;;3.40;2.17;;;;;;;8.37;100.00;97852.59;5000958;28;20244;-59
2023/01/03 08:18:13;;;;;;;2.10;1.90;;;;;;;8.33;100.00;97858.19;5001230;28;20239;-59
2023/01/03 08:20:40;;;;;;;2.17;1.97;;;;;;;8.35;100.00;97869.47;5001389;28;20541;-59
2023/01/03 08:23:07;;;;;;;2.40;2.20;;;;;;;8.36;100.00;97861.47;5000805;28;20208;-59
2023/01/03 08:25:33;;;;;;;3.10;1.60;;;;;;;8.33;100.00;97860.81;5000852;28;20288;-59
2023/01/03 08:28:00;;;;;;;1.87;1.60;;;;;;;8.34;100.00;97862.50;5001351;28;20201;-59
2023/01/03 08:30:28;;;;;;;3.43;1.97;;;;;;;8.38;100.00;97869.28;5000726;28;20861;-59
2023/01/03 08:32:56;;;;;;;1.83;1.73;;;;;;;8.41;100.00;97875.19;5001134;28;20229;-59
2023/01/03 08:35:24;;;;;;;2.20;2.00;;;;;;;8.42;100.00;97881.31;5005894;28;20232;-59
2023/01/03 08:37:52;;;;;;;1.90;1.80;;;;;;;8.42;100.00;97883.94;5020028;28;20193;-59
2023/01/03 08:40:18;;;;;;;2.67;2.10;;;;;;;8.44;100.00;97879.41;5013061;28;20209;-59
2023/01/03 08:42:46;;;;;;;2.30;2.20;;;;;;;8.47;100.00;97879.22;5012074;28;20204;-59
2023/01/03 08:45:14;;;;;;;1.93;1.83;;;;;;;8.52;100.00;97882.41;4995394;28;20244;-58
2023/01/03 08:47:41;;;;;;;2.87;2.10;;;;;;;8.53;100.00;97881.47;4994939;28;20795;-60
2023/01/03 08:50:10;;;;;;;2.43;2.20;;;;;;;8.57;100.00;97885.59;4995270;28;20232;-60
2023/01/03 08:52:37;;;;;;;2.20;2.00;;;;;;;8.61;100.00;97887.06;4995052;28;20209;-59
2023/01/03 08:55:04;;;;;;;2.53;2.00;;;;;;;8.68;100.00;97887.53;4994610;28;20224;-58
2023/01/03 08:57:30;;;;;;;2.83;2.53;;;;;;;8.74;100.00;97887.13;4994363;28;20225;-58
2023/01/03 08:59:57;;;;;;;4.17;3.77;;;;;;;8.79;100.00;97890.28;4994451;28;20228;-59
2023/01/03 09:02:23;;;;;;;3.70;3.40;;;;;;;8.74;100.00;97887.97;4994160;28;21054;-59
2023/01/03 09:04:49;;;;;;;4.33;3.10;;;;;;;8.81;100.00;97889.25;4994340;28;20220;-59
2023/01/03 09:07:17;;;;;;;3.07;2.77;;;;;;;8.88;100.00;97894.97;4995805;28;20220;-58
2023/01/03 09:09:44;;;;;;;2.43;2.23;;;;;;;8.86;100.00;97892.41;4996553;28;20630;-59
2023/01/03 09:12:10;;;;;;;2.87;2.67;;;;;;;8.93;100.00;97893.69;4998153;28;20201;-59
2023/01/03 09:14:37;;;;;;;3.20;3.00;;;;;;;8.90;100.00;97896.53;4994218;28;20209;-60
2023/01/03 09:17:04;;;;;;;2.50;2.30;;;;;;;8.87;100.00;97901.19;4997572;28;20229;-59
2023/01/03 09:19:31;;;;;;;2.63;2.43;;;;;;;8.87;100.00;97904.66;4997551;28;20205;-59
2023/01/03 09:21:57;;;;;;;2.03;1.93;;;;;;;8.90;100.00;97908.88;4997233;28;20217;-59
2023/01/03 09:24:25;;;;;;;3.23;2.63;;;;;;;8.91;100.00;97915.84;4997188;28;20213;-58
2023/01/03 09:26:51;;;;;;;3.27;2.63;;;;;;;8.89;100.00;97910.66;4995812;28;20555;-60
2023/01/03 09:29:18;;;;;;;2.70;2.50;;;;;;;8.91;100.00;97913.22;4997938;28;20231;-59
2023/01/03 09:31:46;;;;;;;3.10;2.80;;;;;;;8.93;100.00;97922.72;4995654;28;20232;-58
2023/01/03 09:34:13;;;;;;;3.00;2.70;;;;;;;8.89;100.00;97917.75;4993837;28;20672;-59
2023/01/03 09:36:39;;;;;;;2.57;2.37;;;;;;;8.88;100.00;97919.56;4993383;28;20676;-58
2023/01/03 09:39:06;;;;;;;3.17;2.83;;;;;;;8.90;100.00;97920.28;4993795;28;20208;-60
2023/01/03 09:41:35;;;;;;;3.03;2.73;;;;;;;8.96;100.00;97922.50;4993277;28;20213;-58
2023/01/03 09:44:04;;;;;;;2.27;2.17;;;;;;;9.00;100.00;97929.28;4993106;28;20244;-59
2023/01/03 09:46:32;;;;;;;6.00;4.47;;;;;;;8.96;100.00;97934.88;4992708;28;20204;-59
2023/01/03 09:48:59;;;;;;;3.90;2.77;;;;;;;8.96;100.00;97933.06;4993402;28;20292;-59
2023/01/03 10:05:48;;;;;;;3.23;2.83;;;;;;;9.22;100.00;97930.47;4993192;28;20279;-58
2023/01/03 10:08:24;;;;;;;3.33;2.80;;;;;;;9.14;100.00;97932.81;4995152;28;20645;-58
2023/01/03 10:10:58;;;;;;;2.67;2.47;;;;;;;9.15;100.00;97923.91;4995075;28;20197;-58
2023/01/03 10:13:34;;;;;;;3.00;2.60;;;;;;;9.09;100.00;97916.44;4994316;28;20637;-58
2023/01/03 10:16:06;;;;;;;3.83;2.60;;;;;;;9.05;100.00;97922.84;4995304;28;20227;-59
2023/01/03 10:18:42;;;;;;;2.40;2.20;;;;;;;8.95;100.00;97910.28;4995967;28;20205;-58
2023/01/03 10:21:15;;;;;;;2.90;2.60;;;;;;;8.96;100.00;97917.22;4999479;28;20697;-58
2023/01/03 10:23:41;;;;;;;2.80;2.60;;;;;;;9.02;100.00;97920.41;4997215;28;20217;-59
2023/01/03 10:26:09;;;;;;;3.60;3.30;;;;;;;8.96;100.00;97909.31;5001429;28;20194;-58
2023/01/03 10:28:39;;;;;;;2.70;2.50;;;;;;;9.07;100.00;97918.34;5005195;28;20229;-59
2023/01/03 10:31:17;;;;;;;5.40;3.07;;;;;;;9.07;100.00;97915.69;5004753;28;20197;-60
2023/01/03 10:33:45;;;;;;;3.63;3.30;;;;;;;9.15;100.00;97910.72;4995897;28;20649;-60
2023/01/03 10:36:12;;;;;;;3.70;3.40;;;;;;;9.14;100.00;97914.34;4992950;28;20560;-58
2023/01/03 10:38:39;;;;;;;3.43;3.23;;;;;;;9.14;100.00;97915.16;4993039;28;20216;-59
2023/01/03 10:41:15;;;;;;;3.40;3.10;;;;;;;9.19;100.00;97910.41;4992427;28;20201;-59
2023/01/03 10:43:45;;;;;;;3.60;3.30;;;;;;;9.17;100.00;97914.13;4992521;28;20228;-58
2023/01/03 10:46:15;;;;;;;4.43;3.97;;;;;;;9.21;100.00;97910.34;4992743;28;20551;-60
2023/01/03 10:48:43;;;;;;;5.23;4.13;;;;;;;9.20;100.00;97906.84;4992711;28;20216;-58
2023/01/03 10:51:24;;;;;;;3.87;3.47;;;;;;;9.22;100.00;97904.94;4992301;28;20209;-60
2023/01/03 10:53:52;;;;;;;3.50;3.20;;;;;;;9.31;100.00;97908.75;4993078;28;20205;-60
2023/01/03 10:56:19;;;;;;;4.10;3.33;;;;;;;9.37;100.00;97910.97;4994858;28;20237;-60
2023/01/03 10:58:48;;;;;;;3.03;2.83;;;;;;;9.44;100.00;97910.44;4996860;28;20205;-60
2023/01/03 11:01:20;;;;;;;3.63;3.33;;;;;;;9.37;100.00;97903.06;4995056;28;20660;-60
2023/01/03 11:04:09;;;;;;;3.80;3.50;;;;;;;9.42;100.00;97907.06;4996926;28;20202;-60
2023/01/03 11:06:35;;;;;;;5.20;3.70;;;;;;;9.44;100.00;97917.53;4997084;28;20221;-60
2023/01/03 11:09:04;;;;;;;3.60;3.30;;;;;;;9.46;100.00;97910.31;4996711;28;20205;-59
2023/01/03 11:11:32;;;;;;;4.10;3.70;;;;;;;9.45;100.00;97911.28;4995242;28;20197;-59
2023/01/03 11:14:19;;;;;;;3.40;3.20;;;;;;;9.45;100.00;97912.16;4996573;28;20201;-60
2023/01/03 11:16:45;;;;;;;3.67;3.37;;;;;;;9.40;100.00;97918.69;4994083;28;20605;-60
2023/01/03 11:19:16;;;;;;;4.57;3.83;;;;;;;9.35;100.00;97915.53;4993136;28;20213;-61
2023/01/03 11:21:46;;;;;;;4.87;4.37;;;;;;;9.35;100.00;97902.31;4991661;28;20201;-62
2023/01/03 11:24:23;;;;;;;4.33;4.03;;;;;;;9.38;100.00;97910.03;4992394;28;20291;-62
2023/01/03 11:26:51;;;;;;;4.17;3.90;;;;;;;9.71;100.00;97901.56;4992715;28;20200;-61
2023/01/03 11:29:36;;;;;;;4.63;4.17;;;;;;;9.66;100.00;97904.53;4994939;28;20204;-58
2023/01/03 11:32:13;;;;;;;4.50;4.10;;;;;;;9.55;100.00;97901.78;4996816;28;20212;-60
2023/01/03 11:34:53;;;;;;;4.00;3.70;;;;;;;9.53;100.00;97900.22;4997108;28;20247;-60
2023/01/03 11:37:25;;;;;;;4.50;4.10;;;;;;;9.53;100.00;97901.03;4996316;28;20221;-61
2023/01/03 11:40:03;;;;;;;3.83;3.53;;;;;;;9.56;100.00;97907.91;4991394;28;20529;-58
2023/01/03 11:42:34;;;;;;;3.70;3.40;;;;;;;9.56;100.00;97897.34;4991825;28;20296;-60
2023/01/03 11:45:42;;;;;;;3.90;3.50;;;;;;;9.53;100.00;97897.56;4992216;28;20233;-58
2023/01/03 11:48:22;;;;;;;3.50;3.30;;;;;;;9.40;100.00;97900.19;4992433;28;20201;-58
2023/01/03 11:50:52;;;;;;;5.00;3.67;;;;;;;9.44;100.00;97897.25;4991625;28;21440;-58
2023/01/03 11:53:32;;;;;;;3.30;3.10;;;;;;;9.41;100.00;97900.09;4992312;28;20196;-59
2023/01/03 11:56:08;;;;;;;3.93;3.43;;;;;;;9.37;100.00;97898.63;4991791;28;20216;-58
2023/01/03 11:58:55;;;;;;;3.97;3.70;;;;;;;9.38;100.00;97897.69;4991838;28;20263;-58
2023/01/03 12:01:29;;;;;;;4.20;3.60;;;;;;;9.44;100.00;97893.75;4988741;28;20293;-59
2023/01/03 12:04:08;;;;;;;3.70;3.20;;;;;;;9.48;100.00;97882.03;4992061;28;20534;-57
2023/01/03 12:06:38;;;;;;;3.33;3.10;;;;;;;9.46;100.00;97881.28;4993685;28;20197;-59
2023/01/03 12:09:13;;;;;;;3.50;3.13;;;;;;;9.50;100.00;97888.91;4995676;28;20536;-58
2023/01/03 12:11:57;;;;;;;3.07;2.80;;;;;;;9.44;100.00;97883.19;5012584;28;20185;-59
2023/01/03 12:14:26;;;;;;;3.17;2.97;;;;;;;9.42;100.00;97887.75;5018261;28;20248;-58
2023/01/03 12:16:57;;;;;;;3.10;2.90;;;;;;;9.46;100.00;97887.41;5021332;28;20220;-58
2023/01/03 12:19:33;;;;;;;3.83;3.50;;;;;;;9.47;100.00;97882.97;5016352;28;20193;-58
2023/01/03 12:22:04;;;;;;;3.10;2.90;;;;;;;9.50;100.00;97888.03;5018416;28;20177;-58
2023/01/03 12:24:35;;;;;;;2.67;2.47;;;;;;;9.59;100.00;97879.50;5008129;28;20205;-58
2023/01/03 12:27:05;;;;;;;3.27;3.07;;;;;;;9.62;100.00;97881.94;4997419;28;20197;-57
2023/01/03 12:29:34;;;;;;;3.50;3.30;;;;;;;9.64;100.00;97884.44;5001183;28;20223;-58
2023/01/03 12:32:03;;;;;;;3.10;2.80;;;;;;;9.58;100.00;97885.72;5001970;28;20208;-58
2023/01/03 12:34:36;;;;;;;3.30;3.10;;;;;;;9.61;100.00;97892.59;5000238;28;20296;-58
2023/01/03 12:37:09;;;;;;;2.20;2.10;;;;;;;9.60;100.00;97883.81;4994337;28;20653;-59
2023/01/03 12:39:43;;;;;;;2.53;2.33;;;;;;;9.64;100.00;97892.38;4994054;28;20206;-58